KMHT/MHT METAR and TAF weather

Enter ICAO airport designator
Station Type Date Time Source
KMHT METAR 2020/03/29 14:07 UTC NOAA

KMHT 291407Z 12008KT 3SM -RA BR SCT010 BKN014 OVC025 07/05 A3017 RMK AO2 P0002 T00670050 $


Station Type Date Time Source
KMHT Decoded METAR 2020/03/29 14:07 UTC NOAA

MANCHESTER AIRPORT, NH, United States (KMHT) 42-56N 071-26W 81M
Mar 29, 2020 - 10:07 AM EDT / 2020.03.29 1407 UTC
Wind: from the ESE (120 degrees) at 9 MPH (8 KT):0
Visibility: 3 mile(s):0
Sky conditions: overcast
Weather: light rain; mist
Precipitation last hour: 0.02 inches
Temperature: 44.1 F (6.7 C)
Dew Point: 41.0 F (5.0 C)
Relative Humidity: 88%
Pressure (altimeter): 30.17 in. Hg (1021 hPa)
ob: KMHT 291407Z 12008KT 3SM -RA BR SCT010 BKN014 OVC025 07/05 A3017 RMK AO2 P0002 T00670050
cycle: 14

Station Type Date Time Source
KMHT TAF 2020/03/29 14:33 UTC NOAA

TAF
AMD KMHT 291331Z 2914/3012 VRB04KT 3SM -RA BR BKN008 OVC015
FM300300 03007KT 5SM -RA BKN007 OVC025

Example: see airport list